sensor_id;sensor_type;location;lat;lon;timestamp;temperature;humidity
506;DHT22;551;48.524;9.056;2022-12-11T00:01:16;0.50;1.00
506;DHT22;551;48.524;9.056;2022-12-11T00:03:42;0.60;1.00
506;DHT22;551;48.524;9.056;2022-12-11T00:06:09;0.50;1.00
506;DHT22;551;48.524;9.056;2022-12-11T00:08:35;0.50;1.00
506;DHT22;551;48.524;9.056;2022-12-11T00:11:01;0.50;1.00
506;DHT22;551;48.524;9.056;2022-12-11T00:13:28;0.50;1.00
506;DHT22;551;48.524;9.056;2022-12-11T00:15:53;0.40;1.00
506;DHT22;551;48.524;9.056;2022-12-11T00:18:19;0.30;1.00
506;DHT22;551;48.524;9.056;2022-12-11T00:20:44;0.20;1.00
506;DHT22;551;48.524;9.056;2022-12-11T00:23:10;0.30;1.00
506;DHT22;551;48.524;9.056;2022-12-11T00:25:44;0.30;1.00
506;DHT22;551;48.524;9.056;2022-12-11T00:28:11;0.20;1.00
506;DHT22;551;48.524;9.056;2022-12-11T00:30:39;0.20;1.00
506;DHT22;551;48.524;9.056;2022-12-11T00:33:05;0.10;1.00
506;DHT22;551;48.524;9.056;2022-12-11T00:35:30;0.20;1.00
506;DHT22;551;48.524;9.056;2022-12-11T00:37:56;0.20;1.00
506;DHT22;551;48.524;9.056;2022-12-11T00:40:21;0.10;1.00
506;DHT22;551;48.524;9.056;2022-12-11T00:42:47;0.10;1.00
506;DHT22;551;48.524;9.056;2022-12-11T00:45:12;0.10;1.00
506;DHT22;551;48.524;9.056;2022-12-11T00:47:38;0.10;1.00
506;DHT22;551;48.524;9.056;2022-12-11T00:50:04;0.00;1.00
506;DHT22;551;48.524;9.056;2022-12-11T00:52:29;0.00;1.00
506;DHT22;551;48.524;9.056;2022-12-11T00:54:55;0.00;1.00
506;DHT22;551;48.524;9.056;2022-12-11T00:57:20;0.00;1.00
506;DHT22;551;48.524;9.056;2022-12-11T00:59:46;0.00;1.00
506;DHT22;551;48.524;9.056;2022-12-11T01:02:11;-0.10;1.00
506;DHT22;551;48.524;9.056;2022-12-11T01:04:37;-0.20;1.00
506;DHT22;551;48.524;9.056;2022-12-11T01:07:02;-0.20;1.00
506;DHT22;551;48.524;9.056;2022-12-11T01:09:28;-0.30;1.00
506;DHT22;551;48.524;9.056;2022-12-11T01:12:12;-0.30;1.00
506;DHT22;551;48.524;9.056;2022-12-11T01:14:38;-0.30;1.00
506;DHT22;551;48.524;9.056;2022-12-11T01:17:03;-0.30;1.00
506;DHT22;551;48.524;9.056;2022-12-11T01:19:29;-0.30;1.00
506;DHT22;551;48.524;9.056;2022-12-11T01:21:54;-0.40;1.00
506;DHT22;551;48.524;9.056;2022-12-11T01:24:20;-0.40;1.00
506;DHT22;551;48.524;9.056;2022-12-11T01:26:45;-0.40;1.00
506;DHT22;551;48.524;9.056;2022-12-11T01:29:11;-0.50;1.00
506;DHT22;551;48.524;9.056;2022-12-11T01:31:36;-0.50;1.00
506;DHT22;551;48.524;9.056;2022-12-11T01:34:02;-0.40;1.00
506;DHT22;551;48.524;9.056;2022-12-11T01:36:28;-0.40;1.00
506;DHT22;551;48.524;9.056;2022-12-11T01:38:53;-0.40;1.00
506;DHT22;551;48.524;9.056;2022-12-11T01:41:19;-0.40;1.00
506;DHT22;551;48.524;9.056;2022-12-11T01:45:01;-0.40;1.00
506;DHT22;551;48.524;9.056;2022-12-11T01:46:48;-0.40;1.00
506;DHT22;551;48.524;9.056;2022-12-11T01:49:16;-0.40;1.00
506;DHT22;551;48.524;9.056;2022-12-11T01:52:00;-0.30;1.00
506;DHT22;551;48.524;9.056;2022-12-11T01:54:28;-0.20;1.00
506;DHT22;551;48.524;9.056;2022-12-11T01:56:56;-0.20;1.00
506;DHT22;551;48.524;9.056;2022-12-11T01:59:26;-0.20;1.00
506;DHT22;551;48.524;9.056;2022-12-11T02:02:03;-0.20;1.00
506;DHT22;551;48.524;9.056;2022-12-11T02:04:31;-0.30;1.00
506;DHT22;551;48.524;9.056;2022-12-11T02:06:57;-0.20;1.00
506;DHT22;551;48.524;9.056;2022-12-11T02:09:26;-0.10;1.00
506;DHT22;551;48.524;9.056;2022-12-11T02:14:42;-0.20;1.00
506;DHT22;551;48.524;9.056;2022-12-11T02:17:13;-0.10;1.00
506;DHT22;551;48.524;9.056;2022-12-11T02:20:03;-0.20;1.00
506;DHT22;551;48.524;9.056;2022-12-11T02:25:07;-0.10;1.00
506;DHT22;551;48.524;9.056;2022-12-11T02:27:41;0.00;1.00
506;DHT22;551;48.524;9.056;2022-12-11T02:30:10;-0.10;1.00
506;DHT22;551;48.524;9.056;2022-12-11T02:32:53;-0.10;1.00
506;DHT22;551;48.524;9.056;2022-12-11T02:35:39;-0.10;1.00
506;DHT22;551;48.524;9.056;2022-12-11T02:38:21;0.00;1.00
506;DHT22;551;48.524;9.056;2022-12-11T02:40:49;0.00;1.00
506;DHT22;551;48.524;9.056;2022-12-11T02:43:16;0.20;1.00
506;DHT22;551;48.524;9.056;2022-12-11T02:45:44;0.30;1.00
506;DHT22;551;48.524;9.056;2022-12-11T02:48:12;0.40;1.00
506;DHT22;551;48.524;9.056;2022-12-11T02:50:42;0.40;1.00
506;DHT22;551;48.524;9.056;2022-12-11T02:53:11;0.50;1.00
506;DHT22;551;48.524;9.056;2022-12-11T02:55:39;0.40;1.00
506;DHT22;551;48.524;9.056;2022-12-11T02:58:29;0.50;1.00
506;DHT22;551;48.524;9.056;2022-12-11T03:00:55;0.70;1.00
506;DHT22;551;48.524;9.056;2022-12-11T03:03:21;0.60;1.00
506;DHT22;551;48.524;9.056;2022-12-11T03:05:47;0.50;1.00
506;DHT22;551;48.524;9.056;2022-12-11T03:08:13;0.50;1.00
506;DHT22;551;48.524;9.056;2022-12-11T03:10:43;0.40;1.00
506;DHT22;551;48.524;9.056;2022-12-11T03:13:10;0.30;1.00
506;DHT22;551;48.524;9.056;2022-12-11T03:15:52;0.50;1.00
506;DHT22;551;48.524;9.056;2022-12-11T03:18:39;0.50;1.00
506;DHT22;551;48.524;9.056;2022-12-11T03:21:15;0.50;1.00
506;DHT22;551;48.524;9.056;2022-12-11T03:24:07;0.50;1.00
506;DHT22;551;48.524;9.056;2022-12-11T03:26:39;0.40;1.00
506;DHT22;551;48.524;9.056;2022-12-11T03:29:17;0.40;1.00
506;DHT22;551;48.524;9.056;2022-12-11T03:31:53;0.30;1.00
506;DHT22;551;48.524;9.056;2022-12-11T03:34:29;0.20;1.00
506;DHT22;551;48.524;9.056;2022-12-11T03:36:56;0.10;1.00
506;DHT22;551;48.524;9.056;2022-12-11T03:39:32;0.00;1.00
506;DHT22;551;48.524;9.056;2022-12-11T03:42:02;-0.20;1.00
506;DHT22;551;48.524;9.056;2022-12-11T03:44:29;-0.30;1.00
506;DHT22;551;48.524;9.056;2022-12-11T03:46:56;-0.40;1.00
506;DHT22;551;48.524;9.056;2022-12-11T03:49:27;-0.60;1.00
506;DHT22;551;48.524;9.056;2022-12-11T03:51:55;-0.60;1.00
506;DHT22;551;48.524;9.056;2022-12-11T03:54:23;-0.70;1.00
506;DHT22;551;48.524;9.056;2022-12-11T03:56:50;-0.70;1.00
506;DHT22;551;48.524;9.056;2022-12-11T03:59:17;-0.70;1.00
506;DHT22;551;48.524;9.056;2022-12-11T04:01:43;-0.80;1.00
506;DHT22;551;48.524;9.056;2022-12-11T04:04:09;-0.70;1.00
506;DHT22;551;48.524;9.056;2022-12-11T04:06:35;-0.80;1.00
506;DHT22;551;48.524;9.056;2022-12-11T04:09:00;-0.80;1.00
506;DHT22;551;48.524;9.056;2022-12-11T04:11:26;-0.80;1.00
506;DHT22;551;48.524;9.056;2022-12-11T04:14:03;-0.90;1.00
506;DHT22;551;48.524;9.056;2022-12-11T04:16:48;-0.80;1.00
506;DHT22;551;48.524;9.056;2022-12-11T04:19:13;-0.90;1.00
506;DHT22;551;48.524;9.056;2022-12-11T04:21:57;-0.90;1.00
506;DHT22;551;48.524;9.056;2022-12-11T04:24:59;-0.90;1.00
506;DHT22;551;48.524;9.056;2022-12-11T04:27:25;-0.90;1.00
506;DHT22;551;48.524;9.056;2022-12-11T04:30:14;-0.80;1.00
506;DHT22;551;48.524;9.056;2022-12-11T04:32:40;-0.90;1.00
506;DHT22;551;48.524;9.056;2022-12-11T04:35:07;-0.90;1.00
506;DHT22;551;48.524;9.056;2022-12-11T04:37:33;-0.90;1.00
506;DHT22;551;48.524;9.056;2022-12-11T04:39:59;-1.00;1.00
506;DHT22;551;48.524;9.056;2022-12-11T04:42:25;-1.00;1.00
506;DHT22;551;48.524;9.056;2022-12-11T04:44:50;-1.10;1.00
506;DHT22;551;48.524;9.056;2022-12-11T04:47:17;-1.10;1.00
506;DHT22;551;48.524;9.056;2022-12-11T04:49:43;-1.20;1.00
506;DHT22;551;48.524;9.056;2022-12-11T04:52:08;-1.10;1.00
506;DHT22;551;48.524;9.056;2022-12-11T04:54:34;-1.00;1.00
506;DHT22;551;48.524;9.056;2022-12-11T04:56:59;-1.00;1.00
506;DHT22;551;48.524;9.056;2022-12-11T04:59:25;-0.90;1.00
506;DHT22;551;48.524;9.056;2022-12-11T05:01:50;-0.90;1.00
506;DHT22;551;48.524;9.056;2022-12-11T05:04:16;-0.80;1.00
506;DHT22;551;48.524;9.056;2022-12-11T05:06:41;-0.70;1.00
506;DHT22;551;48.524;9.056;2022-12-11T05:09:10;-0.60;1.00
506;DHT22;551;48.524;9.056;2022-12-11T05:11:36;-0.70;1.00
506;DHT22;551;48.524;9.056;2022-12-11T05:14:02;-0.60;1.00
506;DHT22;551;48.524;9.056;2022-12-11T05:16:27;-0.70;1.00
506;DHT22;551;48.524;9.056;2022-12-11T05:18:53;-0.60;1.00
506;DHT22;551;48.524;9.056;2022-12-11T05:21:19;-0.70;1.00
506;DHT22;551;48.524;9.056;2022-12-11T05:23:44;-0.70;1.00
506;DHT22;551;48.524;9.056;2022-12-11T05:26:16;-0.40;1.00
506;DHT22;551;48.524;9.056;2022-12-11T05:28:42;-0.40;1.00
506;DHT22;551;48.524;9.056;2022-12-11T05:31:12;-0.50;1.00
506;DHT22;551;48.524;9.056;2022-12-11T05:33:38;-0.60;1.00
506;DHT22;551;48.524;9.056;2022-12-11T05:36:03;-0.60;1.00
506;DHT22;551;48.524;9.056;2022-12-11T05:38:29;-0.60;1.00
506;DHT22;551;48.524;9.056;2022-12-11T05:40:57;-0.60;1.00
506;DHT22;551;48.524;9.056;2022-12-11T05:43:23;-0.60;1.00
506;DHT22;551;48.524;9.056;2022-12-11T05:45:48;-0.60;1.00
506;DHT22;551;48.524;9.056;2022-12-11T05:48:14;-0.60;1.00
506;DHT22;551;48.524;9.056;2022-12-11T05:50:39;-0.60;1.00
506;DHT22;551;48.524;9.056;2022-12-11T05:53:05;-0.60;1.00
506;DHT22;551;48.524;9.056;2022-12-11T05:55:33;-0.50;1.00
506;DHT22;551;48.524;9.056;2022-12-11T05:57:59;-0.60;1.00
506;DHT22;551;48.524;9.056;2022-12-11T06:00:24;-0.70;1.00
506;DHT22;551;48.524;9.056;2022-12-11T06:02:50;-0.60;1.00
506;DHT22;551;48.524;9.056;2022-12-11T06:05:15;-0.60;1.00
506;DHT22;551;48.524;9.056;2022-12-11T06:07:41;-0.50;1.00
506;DHT22;551;48.524;9.056;2022-12-11T06:10:07;-0.40;1.00
506;DHT22;551;48.524;9.056;2022-12-11T06:12:32;-0.40;1.00
506;DHT22;551;48.524;9.056;2022-12-11T06:14:58;-0.60;1.00
506;DHT22;551;48.524;9.056;2022-12-11T06:17:23;-0.70;1.00
506;DHT22;551;48.524;9.056;2022-12-11T06:19:49;-0.90;1.00
506;DHT22;551;48.524;9.056;2022-12-11T06:22:14;-0.90;1.00
506;DHT22;551;48.524;9.056;2022-12-11T06:24:40;-0.90;1.00
506;DHT22;551;48.524;9.056;2022-12-11T06:27:05;-1.00;1.00
506;DHT22;551;48.524;9.056;2022-12-11T06:29:31;-1.20;1.00
506;DHT22;551;48.524;9.056;2022-12-11T06:31:57;-1.20;1.00
506;DHT22;551;48.524;9.056;2022-12-11T06:34:22;-1.30;1.00
506;DHT22;551;48.524;9.056;2022-12-11T06:36:48;-1.40;1.00
506;DHT22;551;48.524;9.056;2022-12-11T06:39:13;-1.60;1.00
506;DHT22;551;48.524;9.056;2022-12-11T06:41:39;-1.60;1.00
506;DHT22;551;48.524;9.056;2022-12-11T06:44:04;-1.60;1.00
506;DHT22;551;48.524;9.056;2022-12-11T06:46:30;-1.70;1.00
506;DHT22;551;48.524;9.056;2022-12-11T06:48:55;-1.60;1.00
506;DHT22;551;48.524;9.056;2022-12-11T06:51:21;-1.80;1.00
506;DHT22;551;48.524;9.056;2022-12-11T06:53:52;-1.80;1.00
506;DHT22;551;48.524;9.056;2022-12-11T06:56:18;-1.90;1.00
506;DHT22;551;48.524;9.056;2022-12-11T06:58:44;-2.00;1.00
506;DHT22;551;48.524;9.056;2022-12-11T07:01:21;-2.00;1.00
506;DHT22;551;48.524;9.056;2022-12-11T07:03:47;-2.00;1.00
506;DHT22;551;48.524;9.056;2022-12-11T07:06:13;-2.10;1.00
506;DHT22;551;48.524;9.056;2022-12-11T07:08:39;-2.20;1.00
506;DHT22;551;48.524;9.056;2022-12-11T07:11:10;-2.20;1.00
506;DHT22;551;48.524;9.056;2022-12-11T07:13:37;-2.30;1.00
506;DHT22;551;48.524;9.056;2022-12-11T07:16:03;-2.30;1.00
506;DHT22;551;48.524;9.056;2022-12-11T07:18:34;-2.30;1.00
506;DHT22;551;48.524;9.056;2022-12-11T07:20:59;-2.30;1.00
506;DHT22;551;48.524;9.056;2022-12-11T07:23:26;-2.30;1.00
506;DHT22;551;48.524;9.056;2022-12-11T07:25:53;-2.30;1.00
506;DHT22;551;48.524;9.056;2022-12-11T07:28:18;-2.30;1.00
506;DHT22;551;48.524;9.056;2022-12-11T07:30:44;-2.30;1.00
506;DHT22;551;48.524;9.056;2022-12-11T07:33:09;-2.30;1.00
506;DHT22;551;48.524;9.056;2022-12-11T07:35:35;-2.30;1.00
506;DHT22;551;48.524;9.056;2022-12-11T07:38:01;-2.20;1.00
506;DHT22;551;48.524;9.056;2022-12-11T07:40:26;-2.10;1.00
506;DHT22;551;48.524;9.056;2022-12-11T07:42:52;-2.00;1.00
506;DHT22;551;48.524;9.056;2022-12-11T07:45:18;-1.90;1.00
506;DHT22;551;48.524;9.056;2022-12-11T07:47:43;-1.80;1.00
506;DHT22;551;48.524;9.056;2022-12-11T07:50:09;-1.60;1.00
506;DHT22;551;48.524;9.056;2022-12-11T07:52:34;-1.50;1.00
506;DHT22;551;48.524;9.056;2022-12-11T07:55:00;-1.30;1.00
506;DHT22;551;48.524;9.056;2022-12-11T07:57:26;-1.10;1.00
506;DHT22;551;48.524;9.056;2022-12-11T07:59:52;-1.10;1.00
506;DHT22;551;48.524;9.056;2022-12-11T08:02:17;-1.10;1.00
506;DHT22;551;48.524;9.056;2022-12-11T08:04:43;-1.10;1.00
506;DHT22;551;48.524;9.056;2022-12-11T08:07:08;-1.00;1.00
506;DHT22;551;48.524;9.056;2022-12-11T08:09:34;-0.90;1.00
506;DHT22;551;48.524;9.056;2022-12-11T08:11:59;-0.90;1.00
506;DHT22;551;48.524;9.056;2022-12-11T08:14:25;-0.80;1.00
506;DHT22;551;48.524;9.056;2022-12-11T08:16:50;-0.70;1.00
506;DHT22;551;48.524;9.056;2022-12-11T08:19:16;-0.70;1.00
506;DHT22;551;48.524;9.056;2022-12-11T08:21:42;-0.60;1.00
506;DHT22;551;48.524;9.056;2022-12-11T08:24:08;-0.70;1.00
506;DHT22;551;48.524;9.056;2022-12-11T08:26:35;-0.70;1.00
506;DHT22;551;48.524;9.056;2022-12-11T08:29:01;-0.50;1.00
506;DHT22;551;48.524;9.056;2022-12-11T08:31:27;0.00;1.00
506;DHT22;551;48.524;9.056;2022-12-11T08:33:54;0.90;1.00
506;DHT22;551;48.524;9.056;2022-12-11T08:36:21;1.90;1.00
506;DHT22;551;48.524;9.056;2022-12-11T08:38:47;2.90;1.00
506;DHT22;551;48.524;9.056;2022-12-11T08:43:40;4.40;1.00
506;DHT22;551;48.524;9.056;2022-12-11T08:46:06;5.20;1.00
506;DHT22;551;48.524;9.056;2022-12-11T08:48:33;5.30;1.00
506;DHT22;551;48.524;9.056;2022-12-11T08:51:03;5.60;1.00
506;DHT22;551;48.524;9.056;2022-12-11T08:53:30;6.10;1.00
506;DHT22;551;48.524;9.056;2022-12-11T08:56:05;6.10;1.00
506;DHT22;551;48.524;9.056;2022-12-11T08:58:31;6.50;1.00
506;DHT22;551;48.524;9.056;2022-12-11T09:00:56;6.80;1.00
506;DHT22;551;48.524;9.056;2022-12-11T09:03:23;7.10;1.00
506;DHT22;551;48.524;9.056;2022-12-11T09:05:48;7.30;1.00
506;DHT22;551;48.524;9.056;2022-12-11T09:08:14;8.20;1.00
506;DHT22;551;48.524;9.056;2022-12-11T09:10:40;8.70;1.00
506;DHT22;551;48.524;9.056;2022-12-11T09:13:05;8.50;1.00
506;DHT22;551;48.524;9.056;2022-12-11T09:15:30;8.00;1.00
506;DHT22;551;48.524;9.056;2022-12-11T09:17:56;7.90;1.00
506;DHT22;551;48.524;9.056;2022-12-11T09:20:21;7.30;1.00
506;DHT22;551;48.524;9.056;2022-12-11T09:22:47;6.20;1.00
506;DHT22;551;48.524;9.056;2022-12-11T09:25:13;5.30;1.00
506;DHT22;551;48.524;9.056;2022-12-11T09:27:38;4.50;1.00
506;DHT22;551;48.524;9.056;2022-12-11T09:30:04;3.70;1.00
506;DHT22;551;48.524;9.056;2022-12-11T09:32:30;3.30;1.00
506;DHT22;551;48.524;9.056;2022-12-11T09:34:55;3.00;1.00
506;DHT22;551;48.524;9.056;2022-12-11T09:37:21;2.50;1.00
506;DHT22;551;48.524;9.056;2022-12-11T09:39:47;2.20;1.00
506;DHT22;551;48.524;9.056;2022-12-11T09:42:20;2.00;1.00
506;DHT22;551;48.524;9.056;2022-12-11T09:44:53;1.80;1.00
506;DHT22;551;48.524;9.056;2022-12-11T09:47:35;1.80;1.00
506;DHT22;551;48.524;9.056;2022-12-11T09:55:20;1.70;1.00
506;DHT22;551;48.524;9.056;2022-12-11T09:58:03;1.60;1.00
506;DHT22;551;48.524;9.056;2022-12-11T10:00:38;1.60;1.00
506;DHT22;551;48.524;9.056;2022-12-11T10:09:06;1.70;1.00
506;DHT22;551;48.524;9.056;2022-12-11T10:17:37;1.60;1.00
506;DHT22;551;48.524;9.056;2022-12-11T10:20:35;1.60;1.00
506;DHT22;551;48.524;9.056;2022-12-11T10:23:06;1.70;1.00
506;DHT22;551;48.524;9.056;2022-12-11T10:25:39;1.80;1.00
506;DHT22;551;48.524;9.056;2022-12-11T10:28:14;1.90;1.00
506;DHT22;551;48.524;9.056;2022-12-11T10:36:23;1.70;1.00
506;DHT22;551;48.524;9.056;2022-12-11T10:38:50;1.80;1.00
506;DHT22;551;48.524;9.056;2022-12-11T10:41:22;1.80;1.00
506;DHT22;551;48.524;9.056;2022-12-11T10:43:50;1.70;1.00
506;DHT22;551;48.524;9.056;2022-12-11T10:46:27;1.90;1.00
506;DHT22;551;48.524;9.056;2022-12-11T10:48:55;1.90;1.00
506;DHT22;551;48.524;9.056;2022-12-11T10:51:28;2.00;1.00
506;DHT22;551;48.524;9.056;2022-12-11T10:56:45;2.10;1.00
506;DHT22;551;48.524;9.056;2022-12-11T10:59:21;2.00;1.00
506;DHT22;551;48.524;9.056;2022-12-11T11:01:48;2.10;1.00
506;DHT22;551;48.524;9.056;2022-12-11T11:04:19;2.10;1.00
506;DHT22;551;48.524;9.056;2022-12-11T11:06:45;2.30;1.00
506;DHT22;551;48.524;9.056;2022-12-11T11:09:36;2.20;1.00
506;DHT22;551;48.524;9.056;2022-12-11T11:12:02;2.20;1.00
506;DHT22;551;48.524;9.056;2022-12-11T11:14:27;2.30;1.00
506;DHT22;551;48.524;9.056;2022-12-11T11:16:56;2.40;1.00
506;DHT22;551;48.524;9.056;2022-12-11T11:21:56;2.60;1.00
506;DHT22;551;48.524;9.056;2022-12-11T11:24:35;2.70;1.00
506;DHT22;551;48.524;9.056;2022-12-11T11:27:21;2.80;1.00
506;DHT22;551;48.524;9.056;2022-12-11T11:29:55;2.90;1.00
506;DHT22;551;48.524;9.056;2022-12-11T11:32:30;3.00;1.00
506;DHT22;551;48.524;9.056;2022-12-11T11:35:26;3.10;1.00
506;DHT22;551;48.524;9.056;2022-12-11T11:38:13;3.00;1.00
506;DHT22;551;48.524;9.056;2022-12-11T11:40:50;3.10;1.00
506;DHT22;551;48.524;9.056;2022-12-11T11:43:46;3.20;1.00
506;DHT22;551;48.524;9.056;2022-12-11T11:46:20;3.30;1.00
506;DHT22;551;48.524;9.056;2022-12-11T11:51:54;3.20;1.00
506;DHT22;551;48.524;9.056;2022-12-11T11:56:58;3.20;1.00
506;DHT22;551;48.524;9.056;2022-12-11T11:59:39;3.20;1.00
506;DHT22;551;48.524;9.056;2022-12-11T12:02:14;3.60;1.00
506;DHT22;551;48.524;9.056;2022-12-11T12:04:40;3.70;1.00
506;DHT22;551;48.524;9.056;2022-12-11T12:07:19;3.90;1.00
506;DHT22;551;48.524;9.056;2022-12-11T12:15:21;3.70;1.00
506;DHT22;551;48.524;9.056;2022-12-11T12:18:22;3.50;1.00
506;DHT22;551;48.524;9.056;2022-12-11T12:21:08;3.50;1.00
506;DHT22;551;48.524;9.056;2022-12-11T12:24:08;4.10;1.00
506;DHT22;551;48.524;9.056;2022-12-11T12:26:38;4.00;1.00
506;DHT22;551;48.524;9.056;2022-12-11T12:29:15;3.80;1.00
506;DHT22;551;48.524;9.056;2022-12-11T12:31:50;3.50;1.00
506;DHT22;551;48.524;9.056;2022-12-11T12:37:42;3.50;1.00
506;DHT22;551;48.524;9.056;2022-12-11T12:40:29;3.50;1.00
506;DHT22;551;48.524;9.056;2022-12-11T12:48:37;3.80;1.00
506;DHT22;551;48.524;9.056;2022-12-11T12:51:03;4.00;1.00
506;DHT22;551;48.524;9.056;2022-12-11T12:53:32;4.00;1.00
506;DHT22;551;48.524;9.056;2022-12-11T12:56:00;3.80;1.00
506;DHT22;551;48.524;9.056;2022-12-11T12:58:43;3.80;1.00
506;DHT22;551;48.524;9.056;2022-12-11T13:01:21;3.60;1.00
506;DHT22;551;48.524;9.056;2022-12-11T13:04:01;3.40;1.00
506;DHT22;551;48.524;9.056;2022-12-11T13:06:39;3.50;1.00
506;DHT22;551;48.524;9.056;2022-12-11T13:11:43;3.60;1.00
506;DHT22;551;48.524;9.056;2022-12-11T13:16:41;3.40;1.00
506;DHT22;551;48.524;9.056;2022-12-11T13:22:20;3.20;1.00
506;DHT22;551;48.524;9.056;2022-12-11T13:24:59;3.30;1.00
506;DHT22;551;48.524;9.056;2022-12-11T13:30:23;3.40;1.00
506;DHT22;551;48.524;9.056;2022-12-11T13:33:16;3.40;1.00
506;DHT22;551;48.524;9.056;2022-12-11T13:35:42;3.50;1.00
506;DHT22;551;48.524;9.056;2022-12-11T13:38:27;3.60;1.00
506;DHT22;551;48.524;9.056;2022-12-11T13:40:54;3.90;1.00
506;DHT22;551;48.524;9.056;2022-12-11T13:43:25;4.00;1.00
506;DHT22;551;48.524;9.056;2022-12-11T13:45:57;3.90;1.00
506;DHT22;551;48.524;9.056;2022-12-11T13:48:27;3.80;1.00
506;DHT22;551;48.524;9.056;2022-12-11T13:50:55;3.60;1.00
506;DHT22;551;48.524;9.056;2022-12-11T13:53:21;3.50;1.00
506;DHT22;551;48.524;9.056;2022-12-11T13:55:59;3.60;1.00
506;DHT22;551;48.524;9.056;2022-12-11T13:58:25;3.60;1.00
506;DHT22;551;48.524;9.056;2022-12-11T14:01:15;3.60;1.00
506;DHT22;551;48.524;9.056;2022-12-11T14:03:51;3.70;1.00
506;DHT22;551;48.524;9.056;2022-12-11T14:06:18;3.60;1.00
506;DHT22;551;48.524;9.056;2022-12-11T14:08:44;3.50;1.00
506;DHT22;551;48.524;9.056;2022-12-11T14:11:24;3.40;1.00
506;DHT22;551;48.524;9.056;2022-12-11T14:13:52;3.40;1.00
506;DHT22;551;48.524;9.056;2022-12-11T14:16:21;3.40;1.00
506;DHT22;551;48.524;9.056;2022-12-11T14:18:49;3.30;1.00
506;DHT22;551;48.524;9.056;2022-12-11T14:21:20;3.30;1.00
506;DHT22;551;48.524;9.056;2022-12-11T14:23:58;3.30;1.00
506;DHT22;551;48.524;9.056;2022-12-11T14:26:26;3.10;1.00
506;DHT22;551;48.524;9.056;2022-12-11T14:28:52;3.10;1.00
506;DHT22;551;48.524;9.056;2022-12-11T14:31:28;3.10;1.00
506;DHT22;551;48.524;9.056;2022-12-11T14:34:02;3.00;1.00
506;DHT22;551;48.524;9.056;2022-12-11T14:36:30;3.00;1.00
506;DHT22;551;48.524;9.056;2022-12-11T14:39:10;3.00;1.00
506;DHT22;551;48.524;9.056;2022-12-11T14:44:14;3.10;1.00
506;DHT22;551;48.524;9.056;2022-12-11T14:46:47;3.00;1.00
506;DHT22;551;48.524;9.056;2022-12-11T14:49:25;2.90;1.00
506;DHT22;551;48.524;9.056;2022-12-11T14:51:54;2.80;1.00
506;DHT22;551;48.524;9.056;2022-12-11T14:54:37;2.80;1.00
506;DHT22;551;48.524;9.056;2022-12-11T14:57:06;2.80;1.00
506;DHT22;551;48.524;9.056;2022-12-11T14:59:39;2.80;1.00
506;DHT22;551;48.524;9.056;2022-12-11T15:02:31;2.70;1.00
506;DHT22;551;48.524;9.056;2022-12-11T15:05:02;2.90;1.00
506;DHT22;551;48.524;9.056;2022-12-11T15:07:30;2.70;1.00
506;DHT22;551;48.524;9.056;2022-12-11T15:09:56;2.60;1.00
506;DHT22;551;48.524;9.056;2022-12-11T15:12:21;2.60;1.00
506;DHT22;551;48.524;9.056;2022-12-11T15:17:22;2.50;1.00
506;DHT22;551;48.524;9.056;2022-12-11T15:19:54;2.50;1.00
506;DHT22;551;48.524;9.056;2022-12-11T15:22:22;2.50;1.00
506;DHT22;551;48.524;9.056;2022-12-11T15:24:52;2.40;1.00
506;DHT22;551;48.524;9.056;2022-12-11T15:27:37;2.40;1.00
506;DHT22;551;48.524;9.056;2022-12-11T15:32:46;2.20;1.00
506;DHT22;551;48.524;9.056;2022-12-11T15:35:23;2.10;1.00
506;DHT22;551;48.524;9.056;2022-12-11T15:37:54;2.20;1.00
506;DHT22;551;48.524;9.056;2022-12-11T15:40:20;2.20;1.00
506;DHT22;551;48.524;9.056;2022-12-11T15:42:46;2.20;1.00
506;DHT22;551;48.524;9.056;2022-12-11T15:45:34;2.20;1.00
506;DHT22;551;48.524;9.056;2022-12-11T15:47:59;2.10;1.00
506;DHT22;551;48.524;9.056;2022-12-11T15:50:27;2.10;1.00
506;DHT22;551;48.524;9.056;2022-12-11T15:52:54;2.00;1.00
506;DHT22;551;48.524;9.056;2022-12-11T15:55:21;2.00;1.00
506;DHT22;551;48.524;9.056;2022-12-11T15:57:51;1.90;1.00
506;DHT22;551;48.524;9.056;2022-12-11T16:00:18;1.80;1.00
506;DHT22;551;48.524;9.056;2022-12-11T16:02:44;1.80;1.00
506;DHT22;551;48.524;9.056;2022-12-11T16:05:10;1.90;1.00
506;DHT22;551;48.524;9.056;2022-12-11T16:07:36;1.90;1.00
506;DHT22;551;48.524;9.056;2022-12-11T16:10:02;1.80;1.00
506;DHT22;551;48.524;9.056;2022-12-11T16:12:27;1.80;1.00
506;DHT22;551;48.524;9.056;2022-12-11T16:14:53;1.80;1.00
506;DHT22;551;48.524;9.056;2022-12-11T16:17:18;1.90;1.00
506;DHT22;551;48.524;9.056;2022-12-11T16:19:44;1.90;1.00
506;DHT22;551;48.524;9.056;2022-12-11T16:22:11;1.90;1.00
506;DHT22;551;48.524;9.056;2022-12-11T16:24:38;2.00;1.00
506;DHT22;551;48.524;9.056;2022-12-11T16:27:05;2.00;1.00
506;DHT22;551;48.524;9.056;2022-12-11T16:29:39;2.00;1.00
506;DHT22;551;48.524;9.056;2022-12-11T16:32:05;2.00;1.00
506;DHT22;551;48.524;9.056;2022-12-11T16:34:33;2.00;1.00
506;DHT22;551;48.524;9.056;2022-12-11T16:36:59;2.10;1.00
506;DHT22;551;48.524;9.056;2022-12-11T16:39:25;2.10;1.00
506;DHT22;551;48.524;9.056;2022-12-11T16:41:50;2.10;1.00
506;DHT22;551;48.524;9.056;2022-12-11T16:44:20;2.00;1.00
506;DHT22;551;48.524;9.056;2022-12-11T16:46:47;1.90;1.00
506;DHT22;551;48.524;9.056;2022-12-11T16:49:12;1.90;1.00
506;DHT22;551;48.524;9.056;2022-12-11T16:51:39;1.90;1.00
506;DHT22;551;48.524;9.056;2022-12-11T16:54:04;1.90;1.00
506;DHT22;551;48.524;9.056;2022-12-11T16:56:32;1.90;1.00
506;DHT22;551;48.524;9.056;2022-12-11T16:59:00;2.00;1.00
506;DHT22;551;48.524;9.056;2022-12-11T17:01:26;2.00;1.00
506;DHT22;551;48.524;9.056;2022-12-11T17:03:51;2.00;1.00
506;DHT22;551;48.524;9.056;2022-12-11T17:06:17;1.90;1.00
506;DHT22;551;48.524;9.056;2022-12-11T17:08:43;1.90;1.00
506;DHT22;551;48.524;9.056;2022-12-11T17:11:12;1.90;1.00
506;DHT22;551;48.524;9.056;2022-12-11T17:13:38;1.80;1.00
506;DHT22;551;48.524;9.056;2022-12-11T17:16:12;1.80;1.00
506;DHT22;551;48.524;9.056;2022-12-11T17:18:37;1.70;1.00
506;DHT22;551;48.524;9.056;2022-12-11T17:21:14;1.70;1.00
506;DHT22;551;48.524;9.056;2022-12-11T17:23:42;1.70;1.00
506;DHT22;551;48.524;9.056;2022-12-11T17:26:08;1.70;1.00
506;DHT22;551;48.524;9.056;2022-12-11T17:28:34;1.70;1.00
506;DHT22;551;48.524;9.056;2022-12-11T17:31:04;1.70;1.00
506;DHT22;551;48.524;9.056;2022-12-11T17:33:29;1.80;1.00
506;DHT22;551;48.524;9.056;2022-12-11T17:36:01;1.80;1.00
506;DHT22;551;48.524;9.056;2022-12-11T17:38:27;1.80;1.00
506;DHT22;551;48.524;9.056;2022-12-11T17:40:53;1.70;1.00
506;DHT22;551;48.524;9.056;2022-12-11T17:43:19;1.70;1.00
506;DHT22;551;48.524;9.056;2022-12-11T17:45:47;1.70;1.00
506;DHT22;551;48.524;9.056;2022-12-11T17:48:14;1.70;1.00
506;DHT22;551;48.524;9.056;2022-12-11T17:50:41;1.80;1.00
506;DHT22;551;48.524;9.056;2022-12-11T17:53:07;1.90;1.00
506;DHT22;551;48.524;9.056;2022-12-11T17:55:33;1.90;1.00
506;DHT22;551;48.524;9.056;2022-12-11T17:58:00;1.80;1.00
506;DHT22;551;48.524;9.056;2022-12-11T18:00:26;1.80;1.00
506;DHT22;551;48.524;9.056;2022-12-11T18:02:52;1.80;1.00
506;DHT22;551;48.524;9.056;2022-12-11T18:05:17;1.70;1.00
506;DHT22;551;48.524;9.056;2022-12-11T18:07:43;1.50;1.00
506;DHT22;551;48.524;9.056;2022-12-11T18:10:08;1.50;1.00
506;DHT22;551;48.524;9.056;2022-12-11T18:12:34;1.40;1.00
506;DHT22;551;48.524;9.056;2022-12-11T18:15:00;1.20;1.00
506;DHT22;551;48.524;9.056;2022-12-11T18:17:27;1.10;1.00
506;DHT22;551;48.524;9.056;2022-12-11T18:19:52;1.00;1.00
506;DHT22;551;48.524;9.056;2022-12-11T18:22:18;1.00;1.00
506;DHT22;551;48.524;9.056;2022-12-11T18:24:44;0.90;1.00
506;DHT22;551;48.524;9.056;2022-12-11T18:27:09;0.80;1.00
506;DHT22;551;48.524;9.056;2022-12-11T18:29:36;0.70;1.00
506;DHT22;551;48.524;9.056;2022-12-11T18:32:02;0.70;1.00
506;DHT22;551;48.524;9.056;2022-12-11T18:34:28;0.60;1.00